createdAt,value
2022-12-03T00:01:50.957Z,32
2022-12-03T00:04:22.819Z,28
2022-12-03T00:06:53.529Z,28
2022-12-03T00:09:23.907Z,32
2022-12-03T00:11:53.273Z,32
2022-12-03T00:14:24.454Z,29
2022-12-03T00:16:55.666Z,28
2022-12-03T00:19:24.691Z,25
2022-12-03T00:21:55.867Z,31
2022-12-03T00:24:26.615Z,31
2022-12-03T00:27:01.191Z,36
2022-12-03T00:29:31.764Z,33
2022-12-03T00:32:02.306Z,36
2022-12-03T00:34:32.712Z,31
2022-12-03T00:37:03.641Z,32
2022-12-03T00:39:34.592Z,22
2022-12-03T00:42:05.365Z,28
2022-12-03T00:44:36.187Z,24
2022-12-03T00:47:07.515Z,24
2022-12-03T00:49:38.155Z,28
2022-12-03T00:52:10.341Z,24
2022-12-03T00:54:39.862Z,24
2022-12-03T00:57:11.091Z,20
2022-12-03T00:59:42.296Z,24
2022-12-03T01:02:13.517Z,20
2022-12-03T01:04:44.509Z,24
2022-12-03T01:07:15.077Z,27
2022-12-03T01:09:46.114Z,23
2022-12-03T01:12:16.686Z,24
2022-12-03T01:14:48.307Z,31
2022-12-03T01:17:20.570Z,28
2022-12-03T01:19:51.814Z,28
2022-12-03T01:22:22.832Z,32
2022-12-03T01:24:53.969Z,27
2022-12-03T01:27:24.518Z,25
2022-12-03T01:29:55.332Z,21
2022-12-03T01:32:26.750Z,24
2022-12-03T01:34:58.047Z,28
2022-12-03T01:37:30.912Z,22
2022-12-03T01:40:01.900Z,24
2022-12-03T01:42:32.863Z,30
2022-12-03T01:45:04.362Z,25
2022-12-03T01:47:34.722Z,28
2022-12-03T01:50:05.193Z,28
2022-12-03T01:52:36.364Z,41
2022-12-03T01:55:07.622Z,28
2022-12-03T01:57:38.947Z,28
2022-12-03T02:00:10.147Z,25
2022-12-03T02:02:41.268Z,30
2022-12-03T02:05:12.249Z,43
2022-12-03T02:07:43.115Z,36
2022-12-03T02:10:13.943Z,28
2022-12-03T02:12:45.284Z,26
2022-12-03T02:15:15.570Z,29
2022-12-03T02:17:46.584Z,34
2022-12-03T02:20:17.612Z,27
2022-12-03T02:22:48.808Z,57
2022-12-03T02:25:20.581Z,40
2022-12-03T02:27:51.244Z,28
2022-12-03T02:30:22.642Z,35
2022-12-03T02:32:53.162Z,32
2022-12-03T02:35:24.647Z,35
2022-12-03T02:37:54.953Z,30
2022-12-03T02:40:26.341Z,30
2022-12-03T02:42:58.096Z,33
2022-12-03T02:45:28.887Z,28
2022-12-03T02:48:00.693Z,28
2022-12-03T02:50:31.416Z,31
2022-12-03T02:53:02.679Z,31
2022-12-03T02:55:36.720Z,32
2022-12-03T02:58:03.820Z,29
2022-12-03T03:00:35.070Z,27
2022-12-03T03:03:05.788Z,32
2022-12-03T03:05:36.544Z,28
2022-12-03T03:08:07.912Z,27
2022-12-03T03:10:39.650Z,28
2022-12-03T03:13:10.574Z,23
2022-12-03T03:15:41.892Z,24
2022-12-03T03:18:13.242Z,24
2022-12-03T03:20:44.426Z,24
2022-12-03T03:23:15.256Z,27
2022-12-03T03:25:46.426Z,36
2022-12-03T03:28:17.762Z,26
2022-12-03T03:30:49.239Z,24
2022-12-03T03:33:20.244Z,24
2022-12-03T03:35:49.718Z,27
2022-12-03T03:38:21.061Z,25
2022-12-03T03:40:52.316Z,20
2022-12-03T03:43:23.528Z,31
2022-12-03T03:45:54.810Z,19
2022-12-03T03:48:25.567Z,24
2022-12-03T03:50:56.650Z,24
2022-12-03T03:53:28.113Z,24
2022-12-03T03:55:59.280Z,27
2022-12-03T03:58:30.255Z,23
2022-12-03T04:01:02.116Z,26
2022-12-03T04:03:31.513Z,24
2022-12-03T04:06:02.860Z,24
2022-12-03T04:08:33.564Z,18
2022-12-03T04:11:04.391Z,23
2022-12-03T04:13:34.988Z,25
2022-12-03T04:16:05.628Z,20
2022-12-03T04:18:36.817Z,24
2022-12-03T04:21:07.362Z,24
2022-12-03T04:23:38.872Z,24
2022-12-03T04:26:10.381Z,24
2022-12-03T04:28:42.284Z,23
2022-12-03T04:31:12.747Z,21
2022-12-03T04:33:43.822Z,20
2022-12-03T04:36:14.392Z,20
2022-12-03T04:38:45.334Z,23
2022-12-03T04:41:15.866Z,20
2022-12-03T04:43:47.084Z,24
2022-12-03T04:46:18.060Z,19
2022-12-03T04:48:49.317Z,20
2022-12-03T04:51:19.904Z,27
2022-12-03T04:53:51.538Z,20
2022-12-03T04:56:22.422Z,20
2022-12-03T04:58:53.514Z,26
2022-12-03T05:01:24.781Z,16
2022-12-03T05:03:54.425Z,19
2022-12-03T05:06:25.395Z,20
2022-12-03T05:08:56.629Z,24
2022-12-03T05:11:28.045Z,24
2022-12-03T05:13:59.049Z,19
2022-12-03T05:16:29.795Z,21
2022-12-03T05:19:00.443Z,20
2022-12-03T05:21:31.371Z,20
2022-12-03T05:24:02.178Z,16
2022-12-03T05:26:32.761Z,24
2022-12-03T05:29:04.119Z,23
2022-12-03T05:31:35.826Z,20
2022-12-03T05:34:07.054Z,18
2022-12-03T05:36:38.666Z,21
2022-12-03T05:39:10.500Z,18
2022-12-03T05:41:41.876Z,16
2022-12-03T05:44:17.445Z,19
2022-12-03T05:46:44.612Z,16
2022-12-03T05:49:15.918Z,34
2022-12-03T05:51:46.279Z,40
2022-12-03T05:54:17.476Z,26
2022-12-03T05:56:50.073Z,26
2022-12-03T05:59:21.261Z,24
2022-12-03T06:01:52.372Z,28
2022-12-03T06:04:23.802Z,24
2022-12-03T06:06:55.546Z,28
2022-12-03T06:09:27.340Z,24
2022-12-03T06:11:59.122Z,36
2022-12-03T06:14:30.431Z,30
2022-12-03T06:17:02.014Z,20
2022-12-03T06:19:32.643Z,20
2022-12-03T06:22:03.551Z,30
2022-12-03T06:24:33.789Z,28
2022-12-03T06:27:04.629Z,21
2022-12-03T06:29:35.592Z,27
2022-12-03T06:32:06.387Z,24
2022-12-03T06:34:37.632Z,28
2022-12-03T06:37:09.203Z,47
2022-12-03T06:39:40.604Z,42
2022-12-03T06:42:11.833Z,37
2022-12-03T06:44:43.198Z,30
2022-12-03T06:47:13.804Z,31
2022-12-03T06:49:45.145Z,30
2022-12-03T06:52:15.986Z,36
2022-12-03T06:54:46.931Z,29
2022-12-03T06:57:16.975Z,39
2022-12-03T06:59:47.305Z,29
2022-12-03T07:02:19.007Z,37
2022-12-03T07:04:50.515Z,33
2022-12-03T07:07:21.457Z,48
2022-12-03T07:09:52.987Z,43
2022-12-03T07:12:24.735Z,39
2022-12-03T07:14:56.519Z,40
2022-12-03T07:17:27.005Z,45
2022-12-03T07:19:58.081Z,35
2022-12-03T07:22:27.437Z,56
2022-12-03T07:24:58.120Z,46
2022-12-03T07:27:29.237Z,44
2022-12-03T07:30:00.123Z,36
2022-12-03T07:32:30.780Z,48
2022-12-03T07:35:02.959Z,41
2022-12-03T07:37:34.159Z,40
2022-12-03T07:40:05.108Z,53
2022-12-03T07:42:36.105Z,42
2022-12-03T07:45:07.071Z,56
2022-12-03T07:47:37.926Z,57
2022-12-03T07:50:08.876Z,52
2022-12-03T07:52:39.415Z,47
2022-12-03T07:55:10.651Z,45
2022-12-03T07:57:41.458Z,42
2022-12-03T08:00:13.732Z,50
2022-12-03T08:02:43.343Z,40
2022-12-03T08:05:14.182Z,40
2022-12-03T08:07:44.652Z,48
2022-12-03T08:10:15.895Z,49
2022-12-03T08:12:46.480Z,50
2022-12-03T08:15:17.461Z,48
2022-12-03T08:17:48.058Z,38
2022-12-03T08:20:20.535Z,56
2022-12-03T08:22:51.605Z,52
2022-12-03T08:25:22.620Z,43
2022-12-03T08:27:53.675Z,55
2022-12-03T08:30:25.023Z,45
2022-12-03T08:32:55.805Z,44
2022-12-03T08:35:27.393Z,43
2022-12-03T08:37:58.564Z,47
2022-12-03T08:40:30.529Z,42
2022-12-03T08:42:59.726Z,40
2022-12-03T08:45:30.959Z,56
2022-12-03T08:48:01.877Z,42
2022-12-03T08:50:32.702Z,44
2022-12-03T08:53:01.773Z,40
2022-12-03T08:55:32.952Z,36
2022-12-03T08:58:03.339Z,37
2022-12-03T09:00:34.543Z,36
2022-12-03T09:03:05.855Z,32
2022-12-03T09:05:37.017Z,36
2022-12-03T09:08:07.761Z,39
2022-12-03T09:10:40.457Z,35
2022-12-03T09:13:11.295Z,32
2022-12-03T09:15:43.015Z,27
2022-12-03T09:18:13.825Z,36
2022-12-03T09:20:45.034Z,45
2022-12-03T09:23:16.459Z,40
2022-12-03T09:25:49.106Z,36
2022-12-03T09:28:20.180Z,45
2022-12-03T09:30:51.350Z,35
2022-12-03T09:33:22.202Z,37
2022-12-03T09:35:53.772Z,30
2022-12-03T09:38:25.003Z,38
2022-12-03T09:40:56.690Z,36
2022-12-03T09:43:43.272Z,38
2022-12-03T09:45:58.706Z,39
2022-12-03T09:48:29.809Z,32
2022-12-03T09:51:00.847Z,41
2022-12-03T09:53:31.532Z,40
2022-12-03T09:56:02.853Z,36
2022-12-03T09:58:34.971Z,53
2022-12-03T10:01:04.343Z,36
2022-12-03T10:03:35.072Z,39
2022-12-03T10:06:05.815Z,36
2022-12-03T10:08:37.220Z,40
2022-12-03T10:11:08.676Z,41
2022-12-03T10:13:39.928Z,36
2022-12-03T10:16:11.141Z,40
2022-12-03T10:18:42.229Z,40
2022-12-03T10:21:13.684Z,47
2022-12-03T10:23:44.240Z,35
2022-12-03T10:26:15.776Z,40
2022-12-03T10:28:47.218Z,35
2022-12-03T10:31:18.064Z,36
2022-12-03T10:33:49.635Z,33
2022-12-03T10:36:21.716Z,32
2022-12-03T10:38:52.714Z,45
2022-12-03T10:41:24.251Z,32
2022-12-03T10:43:55.345Z,50
2022-12-03T10:46:26.412Z,36
2022-12-03T10:48:58.053Z,33
2022-12-03T10:51:29.401Z,36
2022-12-03T10:54:00.573Z,29
2022-12-03T10:56:31.918Z,33
2022-12-03T10:59:04.327Z,32
2022-12-03T11:01:35.412Z,28
2022-12-03T11:04:06.701Z,36
2022-12-03T11:06:37.659Z,40
2022-12-03T11:09:09.345Z,31
2022-12-03T11:11:39.979Z,33
2022-12-03T11:14:11.570Z,40
2022-12-03T11:16:42.415Z,40
2022-12-03T11:19:13.616Z,36
2022-12-03T11:21:44.957Z,40
2022-12-03T11:24:15.892Z,36
2022-12-03T11:26:46.831Z,36
2022-12-03T11:29:17.926Z,32
2022-12-03T11:31:48.909Z,37
2022-12-03T11:34:20.009Z,37
2022-12-03T11:37:01.373Z,35
2022-12-03T11:39:22.326Z,38
2022-12-03T11:41:53.124Z,35
2022-12-03T11:44:24.413Z,37
2022-12-03T11:46:55.654Z,28
2022-12-03T11:49:28.151Z,31
2022-12-03T11:51:58.977Z,33
2022-12-03T11:54:30.163Z,34
2022-12-03T11:57:01.302Z,34
2022-12-03T11:59:32.645Z,43
2022-12-03T12:02:03.660Z,36
2022-12-03T12:04:34.800Z,36
2022-12-03T12:07:05.833Z,36
2022-12-03T12:09:37.220Z,40
2022-12-03T12:12:08.266Z,35
2022-12-03T12:14:40.138Z,40
2022-12-03T12:17:11.484Z,36
2022-12-03T12:19:43.164Z,36
2022-12-03T12:22:14.074Z,36
2022-12-03T12:24:45.169Z,36
2022-12-03T12:27:16.345Z,36
2022-12-03T12:29:47.880Z,35
2022-12-03T12:32:18.702Z,35
2022-12-03T12:34:50.129Z,31
2022-12-03T12:37:21.360Z,31
2022-12-03T12:39:53.280Z,36
2022-12-03T12:42:23.986Z,40
2022-12-03T12:44:55.102Z,32
2022-12-03T12:47:26.311Z,36
2022-12-03T12:49:58.143Z,31
2022-12-03T12:52:29.998Z,32
2022-12-03T12:55:04.832Z,37
2022-12-03T12:57:32.881Z,40
2022-12-03T13:00:05.013Z,32
2022-12-03T13:02:36.231Z,36
2022-12-03T13:05:07.798Z,37
2022-12-03T13:07:39.365Z,52
2022-12-03T13:10:10.519Z,40
2022-12-03T13:12:41.921Z,44
2022-12-03T13:15:14.578Z,52
2022-12-03T13:17:45.686Z,43
2022-12-03T13:20:17.151Z,62
2022-12-03T13:22:48.544Z,49
2022-12-03T13:25:32.735Z,36
2022-12-03T13:27:51.238Z,36
2022-12-03T13:30:22.666Z,31
2022-12-03T13:32:54.387Z,35
2022-12-03T13:35:25.926Z,31
2022-12-03T13:37:57.999Z,36
2022-12-03T13:40:29.929Z,37
2022-12-03T13:43:01.928Z,38
2022-12-03T13:45:33.432Z,36
2022-12-03T13:48:04.544Z,39
2022-12-03T13:50:35.555Z,41
2022-12-03T13:53:06.763Z,37
2022-12-03T13:55:37.946Z,36
2022-12-03T13:58:08.829Z,36
2022-12-03T14:00:40.102Z,40
2022-12-03T14:03:11.115Z,43
2022-12-03T14:05:43.058Z,45
2022-12-03T14:08:13.831Z,33
2022-12-03T14:10:45.387Z,38
2022-12-03T14:13:16.654Z,48
2022-12-03T14:15:48.112Z,44
2022-12-03T14:18:18.958Z,44
2022-12-03T14:20:50.830Z,44
2022-12-03T14:23:22.005Z,40
2022-12-03T14:25:53.384Z,31
2022-12-03T14:28:24.383Z,36
2022-12-03T14:30:55.372Z,39
2022-12-03T14:33:26.572Z,35
2022-12-03T14:35:57.164Z,36
2022-12-03T14:38:28.722Z,35
2022-12-03T14:40:59.624Z,36
2022-12-03T14:43:30.849Z,32
2022-12-03T14:46:01.790Z,37
2022-12-03T14:48:32.986Z,32
2022-12-03T14:51:04.304Z,36
2022-12-03T14:53:35.343Z,40
2022-12-03T14:56:06.157Z,40
2022-12-03T14:58:36.837Z,41
2022-12-03T15:01:08.314Z,39
2022-12-03T15:03:39.930Z,37
2022-12-03T15:06:10.589Z,34
2022-12-03T15:08:41.962Z,35
2022-12-03T15:11:14.350Z,39
2022-12-03T15:13:45.708Z,44
2022-12-03T15:16:17.953Z,32
2022-12-03T15:18:48.853Z,43
2022-12-03T15:21:19.933Z,40
2022-12-03T15:23:51.084Z,32
2022-12-03T15:26:22.230Z,80
2022-12-03T15:28:53.412Z,68
2022-12-03T15:31:24.840Z,48
2022-12-03T15:33:56.028Z,64
2022-12-03T15:36:26.936Z,48
2022-12-03T15:38:58.607Z,45
2022-12-03T15:41:29.307Z,73
2022-12-03T15:44:00.376Z,93
2022-12-03T15:46:31.298Z,108
2022-12-03T15:49:02.437Z,116
2022-12-03T15:51:33.420Z,45
2022-12-03T15:54:04.446Z,52
2022-12-03T15:56:35.272Z,35
2022-12-03T15:59:06.068Z,40
2022-12-03T16:01:37.488Z,45
2022-12-03T16:04:08.788Z,40
2022-12-03T16:06:41.012Z,35
2022-12-03T16:09:12.152Z,40
2022-12-03T16:11:45.016Z,38
2022-12-03T16:14:16.292Z,36
2022-12-03T16:16:48.334Z,37
2022-12-03T16:19:19.260Z,42
2022-12-03T16:21:50.100Z,43
2022-12-03T16:24:20.759Z,42
2022-12-03T16:26:51.975Z,45
2022-12-03T16:29:23.068Z,44
2022-12-03T16:31:52.522Z,35
2022-12-03T16:34:23.413Z,40
2022-12-03T16:36:54.586Z,33
2022-12-03T16:39:25.308Z,44
2022-12-03T16:41:56.816Z,38
2022-12-03T16:44:33.265Z,40
2022-12-03T16:47:04.422Z,37
2022-12-03T16:49:35.765Z,44
2022-12-03T16:52:06.724Z,36
2022-12-03T16:54:37.855Z,44
2022-12-03T16:57:08.985Z,42
2022-12-03T16:59:40.054Z,44
2022-12-03T17:02:10.965Z,40
2022-12-03T17:04:42.142Z,37
2022-12-03T17:07:14.298Z,39
2022-12-03T17:09:45.277Z,40
2022-12-03T17:12:16.434Z,41
2022-12-03T17:14:47.510Z,40
2022-12-03T17:17:18.443Z,31
2022-12-03T17:19:49.643Z,45
2022-12-03T17:22:21.779Z,33
2022-12-03T17:24:52.828Z,40
2022-12-03T17:27:23.619Z,44
2022-12-03T17:29:56.069Z,36
2022-12-03T17:32:26.198Z,38
2022-12-03T17:34:57.281Z,41
2022-12-03T17:37:29.350Z,37
2022-12-03T17:40:00.907Z,34
2022-12-03T17:42:31.876Z,36
2022-12-03T17:45:02.176Z,37
2022-12-03T17:47:33.288Z,28
2022-12-03T17:50:04.969Z,32
2022-12-03T17:52:35.769Z,36
2022-12-03T17:55:13.071Z,33
2022-12-03T17:57:37.322Z,40
2022-12-03T18:00:08.492Z,27
2022-12-03T18:02:39.449Z,28
2022-12-03T18:05:10.915Z,32
2022-12-03T18:07:42.024Z,39
2022-12-03T18:10:13.482Z,34
2022-12-03T18:12:44.567Z,39
2022-12-03T18:15:15.720Z,28
2022-12-03T18:17:46.396Z,28
2022-12-03T18:20:15.817Z,52
2022-12-03T18:22:46.653Z,36
2022-12-03T18:25:17.619Z,26
2022-12-03T18:27:48.530Z,28
2022-12-03T18:30:19.735Z,37
2022-12-03T18:32:50.736Z,42
2022-12-03T18:35:21.678Z,32
2022-12-03T18:37:52.840Z,34
2022-12-03T18:40:24.178Z,36
2022-12-03T18:42:55.124Z,36
2022-12-03T18:45:26.022Z,38
2022-12-03T18:47:58.170Z,28
2022-12-03T18:50:29.205Z,29
2022-12-03T18:53:00.270Z,26
2022-12-03T18:55:31.211Z,28
2022-12-03T18:58:02.284Z,28
2022-12-03T19:00:33.750Z,33
2022-12-03T19:03:05.072Z,36
2022-12-03T19:05:35.852Z,27
2022-12-03T19:08:06.561Z,33
2022-12-03T19:10:37.782Z,25
2022-12-03T19:13:09.528Z,32
2022-12-03T19:15:40.685Z,29
2022-12-03T19:18:11.829Z,30
2022-12-03T19:20:43.397Z,28
2022-12-03T19:23:14.715Z,38
2022-12-03T19:25:46.022Z,24
2022-12-03T19:28:16.884Z,28
2022-12-03T19:30:48.246Z,34
2022-12-03T19:33:22.590Z,24
2022-12-03T19:35:50.305Z,36
2022-12-03T19:38:20.930Z,30
2022-12-03T19:40:51.672Z,38
2022-12-03T19:43:23.956Z,41
2022-12-03T19:45:55.826Z,36
2022-12-03T19:48:30.482Z,40
2022-12-03T19:51:19.667Z,31
2022-12-03T19:53:32.671Z,24
2022-12-03T19:56:06.983Z,31
2022-12-03T19:58:39.232Z,28
2022-12-03T20:01:10.457Z,32
2022-12-03T20:03:41.658Z,27
2022-12-03T20:06:13.213Z,32
2022-12-03T20:08:44.144Z,30
2022-12-03T20:11:13.906Z,22
2022-12-03T20:13:45.068Z,24
2022-12-03T20:16:15.818Z,34
2022-12-03T20:18:46.373Z,24
2022-12-03T20:21:17.539Z,21
2022-12-03T20:23:48.340Z,28
2022-12-03T20:26:19.526Z,20
2022-12-03T20:28:50.619Z,20
2022-12-03T20:31:20.921Z,20
2022-12-03T20:33:51.908Z,20
2022-12-03T20:36:22.997Z,24
2022-12-03T20:38:54.020Z,20
2022-12-03T20:41:25.497Z,24
2022-12-03T20:43:56.401Z,20
2022-12-03T20:46:28.089Z,24
2022-12-03T20:48:59.041Z,16
2022-12-03T20:51:30.098Z,20
2022-12-03T20:54:01.230Z,21
2022-12-03T20:56:32.780Z,20
2022-12-03T20:59:02.141Z,22
2022-12-03T21:01:33.528Z,24
2022-12-03T21:04:05.845Z,20
2022-12-03T21:06:36.807Z,21
2022-12-03T21:09:07.909Z,16
2022-12-03T21:11:39.359Z,23
2022-12-03T21:14:10.532Z,17
2022-12-03T21:19:11.333Z,20
2022-12-03T21:21:42.399Z,24
2022-12-03T21:24:14.466Z,17
2022-12-03T21:26:45.802Z,20
2022-12-03T21:29:16.998Z,19
2022-12-03T21:31:48.382Z,21
2022-12-03T21:34:19.156Z,21
2022-12-03T21:36:50.431Z,22
2022-12-03T21:39:21.018Z,20
2022-12-03T21:42:18.468Z,20
2022-12-03T21:44:22.635Z,20
2022-12-03T21:47:09.090Z,21
2022-12-03T21:49:25.074Z,19
2022-12-03T21:51:56.154Z,23
2022-12-03T21:54:27.177Z,20
2022-12-03T21:56:59.542Z,24
2022-12-03T21:59:30.537Z,24
2022-12-03T22:02:01.811Z,23
2022-12-03T22:04:34.230Z,26
2022-12-03T22:07:05.440Z,29
2022-12-03T22:09:36.326Z,20
2022-12-03T22:12:07.426Z,23
2022-12-03T22:14:38.434Z,18
2022-12-03T22:17:10.111Z,21
2022-12-03T22:19:41.482Z,17
2022-12-03T22:22:13.005Z,28
2022-12-03T22:24:44.634Z,27
2022-12-03T22:27:16.015Z,24
2022-12-03T22:29:47.210Z,20
2022-12-03T22:32:18.059Z,16
2022-12-03T22:34:49.208Z,14
2022-12-03T22:37:20.293Z,24
2022-12-03T22:39:51.915Z,17
2022-12-03T22:42:23.204Z,20
2022-12-03T22:44:58.325Z,18
2022-12-03T22:47:29.670Z,19
2022-12-03T22:50:01.177Z,16
2022-12-03T22:52:32.310Z,12
2022-12-03T22:55:08.219Z,20
2022-12-03T22:57:39.664Z,16
2022-12-03T23:00:11.841Z,12
2022-12-03T23:02:43.601Z,16
2022-12-03T23:05:14.549Z,12
2022-12-03T23:07:45.518Z,13
2022-12-03T23:10:16.741Z,16
2022-12-03T23:12:47.605Z,12
2022-12-03T23:15:18.978Z,16
2022-12-03T23:17:49.692Z,14
2022-12-03T23:20:20.536Z,24
2022-12-03T23:22:51.270Z,16
2022-12-03T23:25:22.171Z,16
2022-12-03T23:27:53.170Z,20
2022-12-03T23:30:23.587Z,17
2022-12-03T23:32:54.287Z,17
2022-12-03T23:35:24.917Z,15
2022-12-03T23:37:55.846Z,17
2022-12-03T23:40:26.120Z,18
2022-12-03T23:42:56.572Z,24
2022-12-03T23:45:27.495Z,24
2022-12-03T23:47:58.663Z,12
2022-12-03T23:50:29.491Z,18
2022-12-03T23:53:00.638Z,16
2022-12-03T23:55:31.424Z,14
2022-12-03T23:58:01.968Z,16
